createdAt,value
2023-03-04T00:00:33.851Z,11.35
2023-03-04T00:01:30.484Z,13.43
2023-03-04T00:02:27.083Z,14.48
2023-03-04T00:03:23.748Z,18.13
2023-03-04T00:04:20.389Z,13.02
2023-03-04T00:05:17.157Z,11.63
2023-03-04T00:06:13.839Z,14.85
2023-03-04T00:07:10.762Z,17.38
2023-03-04T00:08:07.467Z,16.60
2023-03-04T00:09:04.782Z,15.50
2023-03-04T00:10:01.556Z,16.48
2023-03-04T00:10:58.452Z,17.25
2023-03-04T00:11:55.116Z,15.43
2023-03-04T00:12:51.781Z,13.82
2023-03-04T00:13:48.378Z,11.93
2023-03-04T00:14:45.034Z,14.60
2023-03-04T00:15:41.682Z,14.30
2023-03-04T00:16:38.390Z,11.75
2023-03-04T00:17:34.981Z,11.75
2023-03-04T00:18:31.601Z,11.02
2023-03-04T00:19:28.206Z,10.98
2023-03-04T00:20:24.859Z,11.70
2023-03-04T00:21:22.193Z,16.20
2023-03-04T00:22:18.822Z,16.73
2023-03-04T00:23:15.934Z,14.30
2023-03-04T00:24:12.540Z,14.75
2023-03-04T00:25:09.402Z,15.10
2023-03-04T00:26:05.964Z,16.45
2023-03-04T00:27:02.522Z,17.50
2023-03-04T00:27:59.757Z,15.65
2023-03-04T00:28:56.378Z,16.48
2023-03-04T00:29:53.010Z,17.40
2023-03-04T00:30:49.869Z,15.88
2023-03-04T00:31:46.525Z,18.33
2023-03-04T00:32:43.265Z,16.88
2023-03-04T00:33:40.489Z,16.48
2023-03-04T00:34:37.185Z,17.50
2023-03-04T00:35:33.906Z,15.48
2023-03-04T00:36:30.585Z,14.23
2023-03-04T00:37:27.164Z,13.32
2023-03-04T00:38:23.807Z,17.33
2023-03-04T00:39:20.444Z,14.57
2023-03-04T00:40:17.731Z,17.25
2023-03-04T00:41:14.372Z,11.63
2023-03-04T00:42:10.945Z,13.48
2023-03-04T00:43:07.556Z,12.90
2023-03-04T00:44:05.137Z,14.35
2023-03-04T00:45:01.850Z,14.02
2023-03-04T00:45:58.681Z,12.38
2023-03-04T00:46:55.325Z,13.38
2023-03-04T00:47:51.904Z,12.48
2023-03-04T00:48:48.489Z,14.02
2023-03-04T00:49:45.162Z,12.68
2023-03-04T00:50:42.340Z,13.90
2023-03-04T00:51:38.923Z,14.30
2023-03-04T00:52:35.517Z,13.50
2023-03-04T00:53:32.075Z,12.95
2023-03-04T00:54:28.728Z,12.05
2023-03-04T00:55:25.301Z,13.45
2023-03-04T00:56:21.938Z,12.05
2023-03-04T00:57:18.784Z,15.23
2023-03-04T00:58:15.511Z,11.45
2023-03-04T00:59:12.065Z,13.13
2023-03-04T01:00:09.564Z,11.52
2023-03-04T01:01:07.626Z,10.52
2023-03-04T01:02:04.512Z,10.68
2023-03-04T01:03:01.177Z,10.48
2023-03-04T01:03:57.805Z,11.20
2023-03-04T01:04:54.485Z,11.90
2023-03-04T01:05:51.017Z,12.93
2023-03-04T01:06:47.643Z,11.70
2023-03-04T01:07:44.734Z,11.27
2023-03-04T01:08:41.348Z,10.52
2023-03-04T01:09:37.992Z,11.70
2023-03-04T01:10:34.703Z,11.00
2023-03-04T01:11:31.396Z,11.82
2023-03-04T01:12:28.394Z,10.65
2023-03-04T01:13:25.035Z,11.95
2023-03-04T01:14:21.662Z,11.38
2023-03-04T01:15:18.530Z,12.18
2023-03-04T01:16:15.150Z,11.52
2023-03-04T01:17:12.634Z,8.75
2023-03-04T01:18:09.376Z,9.93
2023-03-04T01:19:05.981Z,10.25
2023-03-04T01:20:03.318Z,9.63
2023-03-04T01:21:00.100Z,11.80
2023-03-04T01:21:56.690Z,9.00
2023-03-04T01:22:53.291Z,10.93
2023-03-04T01:23:49.832Z,11.88
2023-03-04T01:24:46.640Z,10.63
2023-03-04T01:25:43.237Z,12.43
2023-03-04T01:26:39.809Z,9.48
2023-03-04T01:27:36.427Z,9.55
2023-03-04T01:28:36.008Z,11.88
2023-03-04T01:29:32.706Z,9.55
2023-03-04T01:30:29.293Z,13.10
2023-03-04T01:31:26.130Z,11.38
2023-03-04T01:32:22.938Z,11.23
2023-03-04T01:33:19.606Z,10.60
2023-03-04T01:34:18.124Z,12.50
2023-03-04T01:35:14.762Z,13.40
2023-03-04T01:36:11.703Z,12.35
2023-03-04T01:37:09.402Z,12.88
2023-03-04T01:38:06.078Z,13.80
2023-03-04T01:39:02.849Z,13.07
2023-03-04T01:39:59.689Z,12.50
2023-03-04T01:40:56.454Z,10.43
2023-03-04T01:41:53.093Z,12.77
2023-03-04T01:42:49.826Z,11.32
2023-03-04T01:43:46.486Z,12.75
2023-03-04T01:44:44.165Z,13.65
2023-03-04T01:45:40.779Z,14.07
2023-03-04T01:46:38.135Z,12.57
2023-03-04T01:47:36.143Z,11.45
2023-03-04T01:48:38.312Z,10.80
2023-03-04T01:49:35.113Z,11.90
2023-03-04T01:50:34.141Z,11.93
2023-03-04T01:51:30.825Z,13.45
2023-03-04T01:52:28.159Z,12.55
2023-03-04T01:53:27.426Z,10.90
2023-03-04T01:54:24.045Z,12.88
2023-03-04T01:55:22.275Z,10.63
2023-03-04T01:56:30.375Z,10.90
2023-03-04T01:57:27.396Z,10.48
2023-03-04T01:58:28.540Z,10.65
2023-03-04T01:59:27.356Z,11.90
2023-03-04T02:00:31.300Z,12.23
2023-03-04T02:01:27.966Z,12.93
2023-03-04T02:02:24.621Z,11.93
2023-03-04T02:03:22.407Z,11.52
2023-03-04T02:04:29.951Z,13.30
2023-03-04T02:05:28.402Z,13.27
2023-03-04T02:06:25.225Z,11.85
2023-03-04T02:07:21.820Z,12.63
2023-03-04T02:08:21.227Z,11.50
2023-03-04T02:09:18.421Z,13.10
2023-03-04T02:10:15.060Z,13.38
2023-03-04T02:11:11.646Z,11.93
2023-03-04T02:12:08.330Z,12.75
2023-03-04T02:13:05.579Z,14.65
2023-03-04T02:14:02.316Z,11.85
2023-03-04T02:14:58.965Z,12.50
2023-03-04T02:15:55.882Z,13.23
2023-03-04T02:16:52.663Z,9.98
2023-03-04T02:17:50.118Z,16.08
2023-03-04T02:18:46.799Z,21.02
2023-03-04T02:19:56.500Z,10.77
2023-03-04T02:21:10.159Z,14.05
2023-03-04T02:22:07.035Z,14.27
2023-03-04T02:23:10.710Z,16.95
2023-03-04T02:24:15.276Z,14.07
2023-03-04T02:25:19.683Z,14.60
2023-03-04T02:26:22.012Z,11.23
2023-03-04T02:27:20.432Z,13.45
2023-03-04T02:28:18.762Z,15.50
2023-03-04T02:29:17.341Z,11.38
2023-03-04T02:30:20.017Z,11.55
2023-03-04T02:31:24.822Z,12.73
2023-03-04T02:32:21.528Z,12.63
2023-03-04T02:33:19.438Z,10.25
2023-03-04T02:34:21.985Z,11.02
2023-03-04T02:36:16.619Z,10.27
2023-03-04T02:37:13.511Z,9.48
2023-03-04T02:38:12.221Z,8.63
2023-03-04T02:39:22.047Z,12.10
2023-03-04T02:40:27.196Z,9.35
2023-03-04T02:41:26.720Z,11.25
2023-03-04T02:42:23.345Z,9.13
2023-03-04T02:43:20.024Z,11.10
2023-03-04T02:44:22.907Z,13.65
2023-03-04T02:45:39.501Z,11.02
2023-03-04T02:46:36.126Z,12.75
2023-03-04T02:47:32.772Z,15.20
2023-03-04T02:48:29.394Z,11.25
2023-03-04T02:49:28.223Z,11.63
2023-03-04T02:50:26.234Z,13.32
2023-03-04T02:51:22.827Z,11.93
2023-03-04T02:52:22.361Z,10.40
2023-03-04T02:53:20.819Z,10.20
2023-03-04T02:54:20.314Z,8.93
2023-03-04T02:55:17.062Z,10.07
2023-03-04T02:56:13.657Z,8.38
2023-03-04T02:57:12.184Z,7.75
2023-03-04T02:58:08.789Z,9.68
2023-03-04T02:59:05.390Z,9.43
2023-03-04T03:00:02.027Z,10.13
2023-03-04T03:00:58.757Z,10.05
2023-03-04T03:01:55.960Z,12.68
2023-03-04T03:02:52.798Z,12.35
2023-03-04T03:03:49.416Z,10.05
2023-03-04T03:04:46.246Z,9.73
2023-03-04T03:05:42.913Z,9.73
2023-03-04T03:06:40.355Z,11.25
2023-03-04T03:07:38.246Z,11.57
2023-03-04T03:08:34.853Z,12.82
2023-03-04T03:09:31.495Z,9.15
2023-03-04T03:10:28.342Z,11.15
2023-03-04T03:11:26.673Z,10.20
2023-03-04T03:12:23.336Z,11.07
2023-03-04T03:13:19.964Z,9.73
2023-03-04T03:14:16.746Z,10.45
2023-03-04T03:15:13.701Z,8.52
2023-03-04T03:16:10.406Z,12.07
2023-03-04T03:17:07.078Z,10.25
2023-03-04T03:18:03.703Z,8.45
2023-03-04T03:19:00.454Z,10.48
2023-03-04T03:19:57.050Z,12.25
2023-03-04T03:20:53.640Z,10.20
2023-03-04T03:21:50.400Z,9.57
2023-03-04T03:22:47.580Z,10.05
2023-03-04T03:23:44.269Z,11.13
2023-03-04T03:24:40.872Z,13.00
2023-03-04T03:25:37.599Z,12.20
2023-03-04T03:26:34.246Z,11.45
2023-03-04T03:27:30.834Z,12.68
2023-03-04T03:28:27.563Z,11.50
2023-03-04T03:29:24.175Z,13.55
2023-03-04T03:30:21.160Z,11.00
2023-03-04T03:31:18.691Z,13.63
2023-03-04T03:32:15.372Z,15.00
2023-03-04T03:33:11.953Z,13.38
2023-03-04T03:34:08.817Z,13.15
2023-03-04T03:35:05.837Z,13.55
2023-03-04T03:36:02.821Z,15.40
2023-03-04T03:36:59.566Z,13.10
2023-03-04T03:37:56.181Z,16.77
2023-03-04T03:38:52.757Z,14.15
2023-03-04T03:39:49.414Z,14.80
2023-03-04T03:40:46.031Z,15.35
2023-03-04T03:41:42.779Z,17.65
2023-03-04T03:42:39.348Z,17.38
2023-03-04T03:43:36.015Z,16.52
2023-03-04T03:44:32.638Z,15.85
2023-03-04T03:45:29.267Z,13.63
2023-03-04T03:46:25.914Z,14.15
2023-03-04T03:47:23.772Z,15.90
2023-03-04T03:48:20.383Z,17.70
2023-03-04T03:49:17.317Z,17.17
2023-03-04T03:50:14.158Z,15.55
2023-03-04T03:51:10.916Z,17.48
2023-03-04T03:52:08.473Z,18.85
2023-03-04T03:53:05.372Z,19.15
2023-03-04T03:54:02.034Z,19.27
2023-03-04T03:55:02.009Z,19.88
2023-03-04T03:55:59.610Z,23.98
2023-03-04T03:56:56.308Z,18.17
2023-03-04T03:57:52.947Z,18.73
2023-03-04T03:58:49.558Z,18.85
2023-03-04T03:59:46.141Z,19.67
2023-03-04T04:00:42.754Z,20.58
2023-03-04T04:01:39.498Z,19.67
2023-03-04T04:02:36.254Z,16.38
2023-03-04T04:03:32.864Z,19.45
2023-03-04T04:04:29.622Z,20.90
2023-03-04T04:05:26.752Z,16.58
2023-03-04T04:06:23.437Z,18.17
2023-03-04T04:07:20.218Z,18.20
2023-03-04T04:08:17.964Z,16.10
2023-03-04T04:09:14.550Z,19.13
2023-03-04T04:10:11.726Z,21.08
2023-03-04T04:11:12.834Z,19.35
2023-03-04T04:12:09.652Z,18.70
2023-03-04T04:13:06.189Z,19.55
2023-03-04T04:14:02.876Z,20.45
2023-03-04T04:14:59.546Z,17.10
2023-03-04T04:15:56.174Z,20.50
2023-03-04T04:16:53.003Z,17.25
2023-03-04T04:17:49.586Z,17.85
2023-03-04T04:18:46.151Z,16.10
2023-03-04T04:19:42.934Z,17.15
2023-03-04T04:20:39.503Z,16.13
2023-03-04T04:21:36.176Z,15.65
2023-03-04T04:22:32.900Z,17.30
2023-03-04T04:23:29.498Z,14.20
2023-03-04T04:24:26.274Z,15.20
2023-03-04T04:25:22.891Z,17.15
2023-03-04T04:26:19.470Z,15.32
2023-03-04T04:27:16.156Z,16.50
2023-03-04T04:28:12.701Z,16.65
2023-03-04T04:29:12.983Z,15.98
2023-03-04T04:30:10.470Z,17.48
2023-03-04T04:31:09.247Z,15.88
2023-03-04T04:32:06.287Z,15.27
2023-03-04T04:33:04.852Z,17.15
2023-03-04T04:34:01.812Z,14.55
2023-03-04T04:34:58.523Z,14.35
2023-03-04T04:35:55.132Z,14.25
2023-03-04T04:36:51.913Z,14.85
2023-03-04T04:37:48.507Z,13.77
2023-03-04T04:38:45.835Z,15.32
2023-03-04T04:39:42.355Z,14.80
2023-03-04T04:40:38.940Z,15.65
2023-03-04T04:41:39.418Z,13.82
2023-03-04T04:42:36.047Z,15.57
2023-03-04T04:43:32.666Z,16.13
2023-03-04T04:44:29.305Z,12.52
2023-03-04T04:45:25.956Z,14.57
2023-03-04T04:46:22.667Z,14.93
2023-03-04T04:47:19.415Z,15.43
2023-03-04T04:48:16.005Z,15.73
2023-03-04T04:49:12.859Z,13.20
2023-03-04T04:50:10.216Z,20.00
2023-03-04T04:51:06.974Z,21.92
2023-03-04T04:52:03.700Z,16.90
2023-03-04T04:53:00.514Z,17.23
2023-03-04T04:53:57.244Z,17.33
2023-03-04T04:54:53.893Z,14.93
2023-03-04T04:55:50.468Z,16.67
2023-03-04T04:56:47.170Z,15.55
2023-03-04T04:57:45.960Z,14.77
2023-03-04T04:58:43.851Z,15.00
2023-03-04T04:59:40.486Z,16.58
2023-03-04T05:00:37.079Z,18.25
2023-03-04T05:01:33.813Z,16.42
2023-03-04T05:02:31.315Z,20.73
2023-03-04T05:03:27.979Z,18.98
2023-03-04T05:04:24.721Z,15.90
2023-03-04T05:05:21.344Z,17.17
2023-03-04T05:06:17.942Z,21.77
2023-03-04T05:07:14.646Z,23.23
2023-03-04T05:08:11.212Z,21.42
2023-03-04T05:09:08.136Z,23.13
2023-03-04T05:10:05.688Z,15.52
2023-03-04T05:11:03.253Z,15.10
2023-03-04T05:11:59.851Z,16.38
2023-03-04T05:12:56.428Z,16.52
2023-03-04T05:13:53.054Z,15.25
2023-03-04T05:14:49.676Z,13.82
2023-03-04T05:15:47.126Z,13.82
2023-03-04T05:16:43.714Z,16.77
2023-03-04T05:17:40.288Z,15.52
2023-03-04T05:18:37.427Z,16.98
2023-03-04T05:19:33.987Z,13.45
2023-03-04T05:20:30.556Z,13.77
2023-03-04T05:21:27.111Z,14.82
2023-03-04T05:22:23.726Z,12.95
2023-03-04T05:23:21.039Z,15.65
2023-03-04T05:24:17.688Z,13.85
2023-03-04T05:25:14.284Z,13.65
2023-03-04T05:26:15.045Z,14.05
2023-03-04T05:27:11.754Z,17.63
2023-03-04T05:28:12.491Z,12.00
2023-03-04T05:29:09.081Z,16.88
2023-03-04T05:30:06.277Z,13.82
2023-03-04T05:31:03.295Z,14.27
2023-03-04T05:31:59.919Z,14.88
2023-03-04T05:32:56.593Z,20.75
2023-03-04T05:33:53.224Z,14.85
2023-03-04T05:34:49.934Z,19.55
2023-03-04T05:35:48.948Z,18.92
2023-03-04T05:36:45.721Z,13.77
2023-03-04T05:37:42.268Z,15.85
2023-03-04T05:38:38.871Z,15.18
2023-03-04T05:39:35.530Z,17.63
2023-03-04T05:40:32.722Z,16.58
2023-03-04T05:41:29.487Z,15.13
2023-03-04T05:42:26.131Z,17.50
2023-03-04T05:43:23.490Z,17.73
2023-03-04T05:44:20.162Z,19.20
2023-03-04T05:45:16.910Z,19.23
2023-03-04T05:46:15.948Z,17.35
2023-03-04T05:47:14.961Z,19.48
2023-03-04T05:48:11.609Z,22.55
2023-03-04T05:49:08.206Z,16.30
2023-03-04T05:50:05.108Z,19.63
2023-03-04T05:51:02.423Z,17.00
2023-03-04T05:52:01.944Z,18.27
2023-03-04T05:52:58.580Z,16.63
2023-03-04T05:53:55.250Z,21.08
2023-03-04T05:54:51.871Z,18.98
2023-03-04T05:55:49.269Z,21.15
2023-03-04T05:56:45.914Z,24.23
2023-03-04T05:57:42.956Z,19.80
2023-03-04T05:58:39.874Z,16.88
2023-03-04T05:59:36.454Z,16.77
2023-03-04T06:00:33.133Z,18.13
2023-03-04T06:01:31.391Z,25.27
2023-03-04T06:02:28.034Z,23.75
2023-03-04T06:03:24.688Z,26.10
2023-03-04T06:04:21.327Z,30.88
2023-03-04T06:05:21.533Z,29.92
2023-03-04T06:06:18.233Z,29.80
2023-03-04T06:07:14.882Z,30.90
2023-03-04T06:08:14.629Z,32.20
2023-03-04T06:09:11.222Z,29.48
2023-03-04T06:10:08.966Z,24.83
2023-03-04T06:11:05.924Z,23.40
2023-03-04T06:12:02.494Z,22.38
2023-03-04T06:12:59.064Z,24.88
2023-03-04T06:13:55.962Z,30.00
2023-03-04T06:14:52.560Z,37.95
2023-03-04T06:15:54.965Z,32.42
2023-03-04T06:16:51.805Z,27.75
2023-03-04T06:17:48.438Z,37.17
2023-03-04T06:18:45.064Z,33.97
2023-03-04T06:19:44.611Z,37.35
2023-03-04T06:20:41.444Z,43.47
2023-03-04T06:21:38.141Z,33.00
2023-03-04T06:22:35.041Z,33.72
2023-03-04T06:23:32.015Z,35.85
2023-03-04T06:24:28.712Z,37.47
2023-03-04T06:25:25.822Z,32.00
2023-03-04T06:26:22.563Z,31.52
2023-03-04T06:27:19.163Z,38.22
2023-03-04T06:28:15.861Z,38.95
2023-03-04T06:29:12.859Z,38.72
2023-03-04T06:30:10.465Z,37.47
2023-03-04T06:31:07.596Z,34.40
2023-03-04T06:32:04.459Z,41.38
2023-03-04T06:33:01.158Z,45.03
2023-03-04T06:33:57.852Z,41.53
2023-03-04T06:34:54.486Z,43.88
2023-03-04T06:35:55.586Z,38.40
2023-03-04T06:36:52.315Z,41.35
2023-03-04T06:37:49.237Z,43.65
2023-03-04T06:38:45.954Z,50.42
2023-03-04T06:39:42.589Z,51.80
2023-03-04T06:40:39.385Z,51.05
2023-03-04T06:41:36.525Z,46.33
2023-03-04T06:42:33.918Z,48.35
2023-03-04T06:43:30.454Z,46.70
2023-03-04T06:44:27.098Z,43.70
2023-03-04T06:45:23.747Z,42.60
2023-03-04T06:46:20.633Z,40.25
2023-03-04T06:47:18.865Z,36.85
2023-03-04T06:48:15.492Z,32.85
2023-03-04T06:49:12.321Z,35.15
2023-03-04T06:50:09.830Z,33.03
2023-03-04T06:51:09.057Z,33.17
2023-03-04T06:52:05.716Z,32.65
2023-03-04T06:53:02.329Z,38.08
2023-03-04T06:53:59.068Z,32.97
2023-03-04T06:54:55.820Z,34.85
2023-03-04T06:55:52.389Z,32.58
2023-03-04T06:56:49.027Z,33.72
2023-03-04T06:57:48.395Z,33.67
2023-03-04T06:58:45.694Z,35.35
2023-03-04T06:59:42.370Z,34.83
2023-03-04T07:00:39.091Z,37.47
2023-03-04T07:01:36.676Z,36.70
2023-03-04T07:02:33.348Z,46.88
2023-03-04T07:03:29.895Z,49.55
2023-03-04T07:04:26.708Z,45.55
2023-03-04T07:05:23.305Z,38.70
2023-03-04T07:06:22.063Z,48.85
2023-03-04T07:07:18.696Z,40.13
2023-03-04T07:08:15.603Z,37.85
2023-03-04T07:09:12.177Z,37.42
2023-03-04T07:10:10.317Z,38.08
2023-03-04T07:11:07.383Z,33.22
2023-03-04T07:12:04.116Z,36.85
2023-03-04T07:13:01.532Z,37.70
2023-03-04T07:13:58.325Z,32.20
2023-03-04T07:14:54.970Z,38.20
2023-03-04T07:15:51.609Z,33.45
2023-03-04T07:16:48.358Z,36.58
2023-03-04T07:17:45.140Z,37.55
2023-03-04T07:18:41.896Z,36.17
2023-03-04T07:19:38.625Z,34.70
2023-03-04T07:20:35.234Z,33.83
2023-03-04T07:21:31.852Z,37.60
2023-03-04T07:22:28.419Z,30.85
2023-03-04T07:23:25.266Z,33.40
2023-03-04T07:24:21.809Z,29.50
2023-03-04T07:25:18.406Z,43.30
2023-03-04T07:26:15.178Z,43.72
2023-03-04T07:27:11.729Z,43.00
2023-03-04T07:28:08.305Z,41.88
2023-03-04T07:29:05.538Z,34.58
2023-03-04T07:30:02.426Z,37.97
2023-03-04T07:31:12.115Z,39.33
2023-03-04T07:32:09.892Z,40.25
2023-03-04T07:33:06.579Z,38.35
2023-03-04T07:34:08.609Z,36.58
2023-03-04T07:35:06.018Z,40.70
2023-03-04T07:36:02.670Z,41.17
2023-03-04T07:36:59.238Z,36.75
2023-03-04T07:37:55.816Z,36.05
2023-03-04T07:38:54.842Z,38.30
2023-03-04T07:39:51.646Z,35.58
2023-03-04T07:40:58.169Z,39.05
2023-03-04T07:41:54.808Z,42.15
2023-03-04T07:42:52.847Z,34.10
2023-03-04T07:43:49.637Z,28.23
2023-03-04T07:44:46.280Z,30.75
2023-03-04T07:45:42.904Z,28.58
2023-03-04T07:46:39.657Z,26.23
2023-03-04T07:47:36.302Z,36.53
2023-03-04T07:48:32.951Z,24.20
2023-03-04T07:49:29.520Z,24.63
2023-03-04T07:50:26.075Z,29.70
2023-03-04T07:51:25.013Z,28.67
2023-03-04T07:52:21.775Z,24.02
2023-03-04T07:53:18.535Z,23.70
2023-03-04T07:54:15.302Z,31.10
2023-03-04T07:55:14.873Z,22.40
2023-03-04T07:56:14.087Z,24.45
2023-03-04T07:57:10.817Z,18.23
2023-03-04T07:58:07.507Z,16.98
2023-03-04T07:59:04.430Z,23.60
2023-03-04T08:00:01.930Z,14.50
2023-03-04T08:00:58.777Z,21.45
2023-03-04T08:01:55.420Z,17.35
2023-03-04T08:02:52.170Z,18.52
2023-03-04T08:03:49.490Z,18.40
2023-03-04T08:04:46.142Z,22.38
2023-03-04T08:05:43.443Z,26.98
2023-03-04T08:06:41.802Z,27.02
2023-03-04T08:07:38.460Z,23.95
2023-03-04T08:08:35.866Z,21.05
2023-03-04T08:09:32.571Z,18.80
2023-03-04T08:10:29.153Z,19.92
2023-03-04T08:11:26.760Z,17.33
2023-03-04T08:12:24.976Z,16.83
2023-03-04T08:13:21.627Z,18.10
2023-03-04T08:14:18.540Z,14.75
2023-03-04T08:15:15.247Z,14.02
2023-03-04T08:16:16.641Z,15.02
2023-03-04T08:17:14.841Z,18.58
2023-03-04T08:18:12.694Z,17.77
2023-03-04T08:19:09.495Z,19.02
2023-03-04T08:20:06.679Z,20.38
2023-03-04T08:21:08.988Z,20.13
2023-03-04T08:22:05.618Z,19.60
2023-03-04T08:23:02.243Z,25.95
2023-03-04T08:24:02.540Z,18.65
2023-03-04T08:24:59.127Z,22.88
2023-03-04T08:25:55.811Z,19.23
2023-03-04T08:26:52.368Z,22.52
2023-03-04T08:27:48.942Z,16.45
2023-03-04T08:28:46.010Z,19.25
2023-03-04T08:29:42.563Z,18.85
2023-03-04T08:30:40.969Z,19.70
2023-03-04T08:31:38.326Z,17.73
2023-03-04T08:32:35.226Z,16.38
2023-03-04T08:33:32.621Z,19.02
2023-03-04T08:34:29.490Z,22.23
2023-03-04T08:35:26.124Z,21.85
2023-03-04T08:36:22.704Z,17.65
2023-03-04T08:37:19.357Z,17.75
2023-03-04T08:38:15.976Z,19.13
2023-03-04T08:39:14.827Z,18.70
2023-03-04T08:40:14.492Z,19.20
2023-03-04T08:41:11.199Z,19.67
2023-03-04T08:42:07.821Z,19.00
2023-03-04T08:43:04.496Z,19.15
2023-03-04T08:44:01.873Z,19.85
2023-03-04T08:44:58.566Z,19.35
2023-03-04T08:45:55.634Z,24.23
2023-03-04T08:46:52.358Z,18.00
2023-03-04T08:47:49.021Z,16.17
2023-03-04T08:48:45.604Z,19.63
2023-03-04T08:49:42.346Z,19.55
2023-03-04T08:50:39.028Z,16.17
2023-03-04T08:51:38.685Z,18.77
2023-03-04T08:52:35.275Z,18.13
2023-03-04T08:53:31.890Z,23.42
2023-03-04T08:54:28.502Z,17.63
2023-03-04T08:55:25.062Z,16.50
2023-03-04T08:56:21.735Z,20.90
2023-03-04T08:57:18.385Z,18.30
2023-03-04T08:58:15.132Z,18.88
2023-03-04T08:59:11.984Z,17.92
2023-03-04T09:00:10.747Z,17.33
2023-03-04T09:01:13.047Z,20.00
2023-03-04T09:02:10.490Z,18.30
2023-03-04T09:03:07.189Z,18.30
2023-03-04T09:04:03.976Z,19.98
2023-03-04T09:05:00.502Z,23.17
2023-03-04T09:05:57.214Z,16.92
2023-03-04T09:06:54.098Z,21.83
2023-03-04T09:07:51.018Z,16.58
2023-03-04T09:08:48.891Z,18.92
2023-03-04T09:09:45.487Z,21.88
2023-03-04T09:10:42.442Z,17.52
2023-03-04T09:11:39.057Z,18.17
2023-03-04T09:12:35.785Z,19.35
2023-03-04T09:13:32.777Z,19.67
2023-03-04T09:14:29.417Z,19.58
2023-03-04T09:15:25.979Z,19.33
2023-03-04T09:16:22.761Z,19.60
2023-03-04T09:17:19.467Z,23.33
2023-03-04T09:18:16.917Z,19.95
2023-03-04T09:19:13.721Z,17.58
2023-03-04T09:20:13.205Z,18.33
2023-03-04T09:21:10.811Z,17.50
2023-03-04T09:22:07.504Z,26.05
2023-03-04T09:23:04.269Z,18.83
2023-03-04T09:24:00.957Z,19.00
2023-03-04T09:24:57.643Z,20.13
2023-03-04T09:25:54.327Z,19.92
2023-03-04T09:26:52.249Z,19.65
2023-03-04T09:27:48.940Z,21.33
2023-03-04T09:28:45.621Z,23.70
2023-03-04T09:29:43.325Z,20.23
2023-03-04T09:30:40.300Z,20.00
2023-03-04T09:31:37.007Z,18.73
2023-03-04T09:32:34.870Z,19.08
2023-03-04T09:33:31.494Z,22.13
2023-03-04T09:34:28.193Z,22.25
2023-03-04T09:35:25.552Z,21.35
2023-03-04T09:36:22.783Z,19.10
2023-03-04T09:37:19.510Z,19.10
2023-03-04T09:38:16.059Z,20.52
2023-03-04T09:39:12.980Z,20.80
2023-03-04T09:40:16.239Z,21.98
2023-03-04T09:41:18.817Z,19.25
2023-03-04T09:43:25.080Z,19.75
2023-03-04T09:44:29.829Z,21.00
2023-03-04T09:45:36.971Z,22.02
2023-03-04T09:46:38.597Z,24.42
2023-03-04T09:47:37.671Z,14.95
2023-03-04T09:48:44.466Z,18.15
2023-03-04T09:49:43.882Z,19.90
2023-03-04T09:50:55.265Z,21.08
2023-03-04T09:51:57.218Z,18.00
2023-03-04T09:53:17.329Z,18.60
2023-03-04T09:54:16.734Z,22.30
2023-03-04T09:55:37.547Z,17.80
2023-03-04T09:56:38.470Z,20.65
2023-03-04T09:57:41.343Z,20.00
2023-03-04T09:58:53.010Z,17.45
2023-03-04T10:00:13.138Z,19.55
2023-03-04T10:01:26.634Z,22.23
2023-03-04T10:02:43.180Z,15.73
2023-03-04T10:03:48.457Z,19.05
2023-03-04T10:04:50.188Z,21.40
2023-03-04T10:05:53.345Z,15.52
2023-03-04T10:06:54.542Z,17.63
2023-03-04T10:08:24.187Z,22.20
2023-03-04T10:09:28.566Z,21.13
2023-03-04T10:10:33.510Z,24.80
2023-03-04T10:11:33.104Z,26.25
2023-03-04T10:12:33.052Z,25.85
2023-03-04T10:13:41.802Z,28.08
2023-03-04T10:14:52.082Z,24.50
2023-03-04T10:15:51.328Z,22.88
2023-03-04T10:17:00.916Z,26.92
2023-03-04T10:18:11.572Z,23.90
2023-03-04T10:19:14.423Z,26.38
2023-03-04T10:20:23.702Z,27.10
2023-03-04T10:21:27.066Z,23.25
2023-03-04T10:22:35.234Z,26.05
2023-03-04T10:23:34.851Z,24.83
2023-03-04T10:24:31.629Z,22.42
2023-03-04T10:25:31.278Z,23.42
2023-03-04T10:26:33.160Z,23.92
2023-03-04T10:27:31.639Z,29.63
2023-03-04T10:28:30.438Z,20.90
2023-03-04T10:29:30.198Z,24.52
2023-03-04T10:30:32.254Z,21.42
2023-03-04T10:31:37.425Z,26.35
2023-03-04T10:32:34.222Z,19.80
2023-03-04T10:33:40.504Z,24.38
2023-03-04T10:34:37.190Z,19.83
2023-03-04T10:35:36.752Z,25.02
2023-03-04T10:37:09.784Z,20.23
2023-03-04T10:38:07.126Z,18.75
2023-03-04T10:39:13.387Z,19.02
2023-03-04T10:40:22.454Z,20.33
2023-03-04T10:41:26.094Z,23.75
2023-03-04T10:42:29.800Z,24.15
2023-03-04T10:43:26.918Z,20.02
2023-03-04T10:44:24.675Z,19.45
2023-03-04T10:45:25.361Z,28.63
2023-03-04T10:46:24.344Z,24.70
2023-03-04T10:47:25.449Z,19.15
2023-03-04T10:48:30.181Z,20.50
2023-03-04T10:49:30.173Z,20.85
2023-03-04T10:50:28.830Z,27.33
2023-03-04T10:51:30.508Z,23.58
2023-03-04T10:52:41.389Z,24.73
2023-03-04T10:53:41.113Z,22.48
2023-03-04T10:54:54.166Z,20.20
2023-03-04T10:55:50.815Z,24.52
2023-03-04T10:57:03.454Z,19.67
2023-03-04T10:58:06.395Z,21.70
2023-03-04T10:59:33.640Z,20.17
2023-03-04T11:00:33.525Z,21.27
2023-03-04T11:01:30.658Z,23.30
2023-03-04T11:02:36.259Z,19.52
2023-03-04T11:03:38.868Z,24.08
2023-03-04T11:04:35.483Z,21.88
2023-03-04T11:05:32.858Z,21.08
2023-03-04T11:06:31.431Z,27.35
2023-03-04T11:07:28.078Z,24.15
2023-03-04T11:08:24.737Z,24.40
2023-03-04T11:09:24.559Z,19.30
2023-03-04T11:10:22.662Z,24.88
2023-03-04T11:11:42.945Z,24.45
2023-03-04T11:12:39.487Z,23.35
2023-03-04T11:13:36.214Z,27.50
2023-03-04T11:14:39.776Z,27.10
2023-03-04T11:15:53.800Z,24.38
2023-03-04T11:17:00.305Z,23.90
2023-03-04T11:18:06.640Z,22.52
2023-03-04T11:19:11.374Z,20.63
2023-03-04T11:20:32.510Z,21.98
2023-03-04T11:21:31.993Z,30.40
2023-03-04T11:22:31.489Z,22.85
2023-03-04T11:23:48.072Z,23.17
2023-03-04T11:24:56.725Z,18.48
2023-03-04T11:26:01.363Z,19.13
2023-03-04T11:27:15.773Z,19.33
2023-03-04T11:28:22.415Z,19.55
2023-03-04T11:29:27.148Z,22.58
2023-03-04T11:30:38.267Z,25.00
2023-03-04T11:31:42.536Z,17.92
2023-03-04T11:32:43.761Z,19.17
2023-03-04T11:33:49.061Z,18.75
2023-03-04T11:34:58.636Z,20.83
2023-03-04T11:36:08.929Z,25.45
2023-03-04T11:37:21.676Z,20.80
2023-03-04T11:38:20.774Z,20.48
2023-03-04T11:39:25.051Z,20.70
2023-03-04T11:40:47.882Z,22.85
2023-03-04T11:41:58.480Z,20.38
2023-03-04T11:43:30.574Z,23.23
2023-03-04T11:44:27.176Z,24.77
2023-03-04T11:45:39.577Z,21.25
2023-03-04T11:46:39.254Z,24.33
2023-03-04T11:47:47.817Z,23.23
2023-03-04T11:49:03.380Z,23.63
2023-03-04T11:49:59.926Z,23.98
2023-03-04T11:52:01.033Z,20.10
2023-03-04T11:53:19.188Z,18.20
2023-03-04T11:54:21.836Z,20.55
2023-03-04T11:56:49.545Z,20.17
2023-03-04T11:58:16.406Z,20.23
2023-03-04T11:59:29.421Z,19.52
2023-03-04T12:00:32.070Z,23.73
2023-03-04T12:01:47.544Z,22.88
2023-03-04T12:03:29.219Z,22.77
2023-03-04T12:04:54.042Z,23.70
2023-03-04T12:05:58.116Z,21.13
2023-03-04T12:06:57.504Z,22.42
2023-03-04T12:08:18.536Z,24.17
2023-03-04T12:09:51.890Z,20.88
2023-03-04T12:11:27.456Z,25.35
2023-03-04T12:12:27.261Z,20.00
2023-03-04T12:13:37.545Z,22.40
2023-03-04T12:14:46.505Z,20.60
2023-03-04T12:16:12.396Z,23.10
2023-03-04T12:17:30.630Z,22.13
2023-03-04T12:18:55.823Z,42.03
2023-03-04T12:20:14.329Z,25.88
2023-03-04T12:21:21.783Z,21.52
2023-03-04T12:22:42.338Z,25.55
2023-03-04T12:23:44.771Z,26.42
2023-03-04T12:26:35.250Z,25.13
2023-03-04T12:27:40.280Z,24.45
2023-03-04T12:28:58.129Z,26.27
2023-03-04T12:30:07.968Z,21.13
2023-03-04T12:31:17.941Z,22.50
2023-03-04T12:32:48.318Z,26.88
2023-03-04T12:34:09.882Z,23.98
2023-03-04T12:35:27.664Z,26.67
2023-03-04T12:37:08.889Z,24.13
2023-03-04T12:38:43.397Z,31.45
2023-03-04T12:39:48.867Z,33.35
2023-03-04T12:40:52.321Z,29.13
2023-03-04T12:42:07.209Z,29.38
2023-03-04T12:43:18.105Z,23.90
2023-03-04T12:44:20.340Z,30.13
2023-03-04T12:45:17.095Z,29.70
2023-03-04T12:46:27.603Z,24.60
2023-03-04T12:47:37.722Z,30.05
2023-03-04T12:48:42.671Z,28.05
2023-03-04T12:50:13.632Z,26.73
2023-03-04T12:51:56.824Z,29.73
2023-03-04T12:53:06.503Z,25.42
2023-03-04T12:54:39.250Z,30.20
2023-03-04T12:55:39.228Z,29.38
2023-03-04T12:56:48.820Z,29.80